sensor_id;sensor_type;location;lat;lon;timestamp;P1;P2;P0
80643;PMS5003;70010;60.224;24.712;2023-05-29T00:00:40;10;10;
80643;PMS5003;70010;60.224;24.712;2023-05-29T00:03:05;9;7;
80643;PMS5003;70010;60.224;24.712;2023-05-29T00:05:30;12;10;
80643;PMS5003;70010;60.224;24.712;2023-05-29T00:07:55;11;8;
80643;PMS5003;70010;60.224;24.712;2023-05-29T00:10:20;7;7;
80643;PMS5003;70010;60.224;24.712;2023-05-29T00:12:46;7;7;
80643;PMS5003;70010;60.224;24.712;2023-05-29T00:15:11;14;14;
80643;PMS5003;70010;60.224;24.712;2023-05-29T00:17:37;9;9;
80643;PMS5003;70010;60.224;24.712;2023-05-29T00:20:03;9;9;
80643;PMS5003;70010;60.224;24.712;2023-05-29T00:22:28;12;12;
80643;PMS5003;70010;60.224;24.712;2023-05-29T00:24:53;16;15;
80643;PMS5003;70010;60.224;24.712;2023-05-29T00:27:18;9;9;
80643;PMS5003;70010;60.224;24.712;2023-05-29T00:29:44;13;11;
80643;PMS5003;70010;60.224;24.712;2023-05-29T00:32:09;11;10;
80643;PMS5003;70010;60.224;24.712;2023-05-29T00:34:34;13;9;
80643;PMS5003;70010;60.224;24.712;2023-05-29T00:37:00;7;6;
80643;PMS5003;70010;60.224;24.712;2023-05-29T00:39:26;9;9;
80643;PMS5003;70010;60.224;24.712;2023-05-29T00:41:52;11;9;
80643;PMS5003;70010;60.224;24.712;2023-05-29T00:44:18;9;9;
80643;PMS5003;70010;60.224;24.712;2023-05-29T00:46:43;11;11;
80643;PMS5003;70010;60.224;24.712;2023-05-29T00:49:09;10;9;
80643;PMS5003;70010;60.224;24.712;2023-05-29T00:51:35;10;9;
80643;PMS5003;70010;60.224;24.712;2023-05-29T00:54:01;13;10;
80643;PMS5003;70010;60.224;24.712;2023-05-29T00:56:26;9;9;
80643;PMS5003;70010;60.224;24.712;2023-05-29T00:58:51;14;14;
80643;PMS5003;70010;60.224;24.712;2023-05-29T01:01:17;8;8;
80643;PMS5003;70010;60.224;24.712;2023-05-29T01:03:42;8;8;
80643;PMS5003;70010;60.224;24.712;2023-05-29T01:06:07;8;8;
80643;PMS5003;70010;60.224;24.712;2023-05-29T01:08:32;13;8;
80643;PMS5003;70010;60.224;24.712;2023-05-29T01:11:00;13;10;
80643;PMS5003;70010;60.224;24.712;2023-05-29T01:13:24;8;8;
80643;PMS5003;70010;60.224;24.712;2023-05-29T01:15:50;13;10;
80643;PMS5003;70010;60.224;24.712;2023-05-29T01:18:19;10;10;
80643;PMS5003;70010;60.224;24.712;2023-05-29T01:20:40;12;9;
80643;PMS5003;70010;60.224;24.712;2023-05-29T01:23:07;6;6;
80643;PMS5003;70010;60.224;24.712;2023-05-29T01:25:34;12;12;
80643;PMS5003;70010;60.224;24.712;2023-05-29T01:32:50;6;5;
80643;PMS5003;70010;60.224;24.712;2023-05-29T01:35:12;13;10;
80643;PMS5003;70010;60.224;24.712;2023-05-29T01:37:37;12;8;
80643;PMS5003;70010;60.224;24.712;2023-05-29T01:40:02;12;7;
80643;PMS5003;70010;60.224;24.712;2023-05-29T01:42:29;9;8;
80643;PMS5003;70010;60.224;24.712;2023-05-29T01:44:53;9;8;
80643;PMS5003;70010;60.224;24.712;2023-05-29T01:47:19;10;7;
80643;PMS5003;70010;60.224;24.712;2023-05-29T01:49:45;6;6;
80643;PMS5003;70010;60.224;24.712;2023-05-29T01:52:10;10;9;
80643;PMS5003;70010;60.224;24.712;2023-05-29T01:54:35;9;7;
80643;PMS5003;70010;60.224;24.712;2023-05-29T01:57:01;10;7;
80643;PMS5003;70010;60.224;24.712;2023-05-29T01:59:26;7;7;
80643;PMS5003;70010;60.224;24.712;2023-05-29T02:01:51;8;8;
80643;PMS5003;70010;60.224;24.712;2023-05-29T02:04:17;7;7;
80643;PMS5003;70010;60.224;24.712;2023-05-29T02:06:42;8;7;
80643;PMS5003;70010;60.224;24.712;2023-05-29T02:09:07;9;7;
80643;PMS5003;70010;60.224;24.712;2023-05-29T02:11:33;7;7;
80643;PMS5003;70010;60.224;24.712;2023-05-29T02:13:59;9;8;
80643;PMS5003;70010;60.224;24.712;2023-05-29T02:16:24;7;6;
80643;PMS5003;70010;60.224;24.712;2023-05-29T02:18:49;8;8;
80643;PMS5003;70010;60.224;24.712;2023-05-29T02:21:15;9;9;
80643;PMS5003;70010;60.224;24.712;2023-05-29T02:23:41;6;6;
80643;PMS5003;70010;60.224;24.712;2023-05-29T02:26:07;15;13;
80643;PMS5003;70010;60.224;24.712;2023-05-29T02:28:32;8;7;
80643;PMS5003;70010;60.224;24.712;2023-05-29T02:30:57;6;6;
80643;PMS5003;70010;60.224;24.712;2023-05-29T02:33:23;6;6;
80643;PMS5003;70010;60.224;24.712;2023-05-29T02:35:48;6;6;
80643;PMS5003;70010;60.224;24.712;2023-05-29T02:38:13;5;5;
80643;PMS5003;70010;60.224;24.712;2023-05-29T02:40:39;6;6;
80643;PMS5003;70010;60.224;24.712;2023-05-29T02:43:04;6;5;
80643;PMS5003;70010;60.224;24.712;2023-05-29T02:45:29;7;7;
80643;PMS5003;70010;60.224;24.712;2023-05-29T02:47:55;6;5;
80643;PMS5003;70010;60.224;24.712;2023-05-29T02:50:20;7;5;
80643;PMS5003;70010;60.224;24.712;2023-05-29T02:52:45;4;4;
80643;PMS5003;70010;60.224;24.712;2023-05-29T02:55:11;7;6;
80643;PMS5003;70010;60.224;24.712;2023-05-29T02:57:36;5;5;
80643;PMS5003;70010;60.224;24.712;2023-05-29T03:00:01;7;6;
80643;PMS5003;70010;60.224;24.712;2023-05-29T03:02:27;4;4;
80643;PMS5003;70010;60.224;24.712;2023-05-29T03:04:52;3;3;
80643;PMS5003;70010;60.224;24.712;2023-05-29T03:07:18;7;4;
80643;PMS5003;70010;60.224;24.712;2023-05-29T03:09:43;5;5;
80643;PMS5003;70010;60.224;24.712;2023-05-29T03:12:08;7;6;
80643;PMS5003;70010;60.224;24.712;2023-05-29T03:14:34;5;5;
80643;PMS5003;70010;60.224;24.712;2023-05-29T03:16:59;8;6;
80643;PMS5003;70010;60.224;24.712;2023-05-29T03:19:24;5;5;
80643;PMS5003;70010;60.224;24.712;2023-05-29T03:21:50;5;4;
80643;PMS5003;70010;60.224;24.712;2023-05-29T03:24:16;6;5;
80643;PMS5003;70010;60.224;24.712;2023-05-29T03:26:41;5;5;
80643;PMS5003;70010;60.224;24.712;2023-05-29T03:29:06;6;5;
80643;PMS5003;70010;60.224;24.712;2023-05-29T03:31:32;5;5;
80643;PMS5003;70010;60.224;24.712;2023-05-29T03:33:58;4;4;
80643;PMS5003;70010;60.224;24.712;2023-05-29T03:36:23;6;6;
80643;PMS5003;70010;60.224;24.712;2023-05-29T03:38:48;3;3;
80643;PMS5003;70010;60.224;24.712;2023-05-29T03:41:13;5;3;
80643;PMS5003;70010;60.224;24.712;2023-05-29T03:43:39;4;3;
80643;PMS5003;70010;60.224;24.712;2023-05-29T03:46:04;7;4;
80643;PMS5003;70010;60.224;24.712;2023-05-29T03:48:29;5;3;
80643;PMS5003;70010;60.224;24.712;2023-05-29T03:50:55;3;3;
80643;PMS5003;70010;60.224;24.712;2023-05-29T03:53:20;4;4;
80643;PMS5003;70010;60.224;24.712;2023-05-29T03:55:45;3;3;
80643;PMS5003;70010;60.224;24.712;2023-05-29T03:58:11;5;4;
80643;PMS5003;70010;60.224;24.712;2023-05-29T04:00:36;4;3;
80643;PMS5003;70010;60.224;24.712;2023-05-29T04:03:01;5;5;
80643;PMS5003;70010;60.224;24.712;2023-05-29T04:05:27;4;4;
80643;PMS5003;70010;60.224;24.712;2023-05-29T04:07:52;4;3;
80643;PMS5003;70010;60.224;24.712;2023-05-29T04:10:17;4;4;
80643;PMS5003;70010;60.224;24.712;2023-05-29T04:12:43;5;5;
80643;PMS5003;70010;60.224;24.712;2023-05-29T04:15:08;3;3;
80643;PMS5003;70010;60.224;24.712;2023-05-29T04:17:33;6;4;
80643;PMS5003;70010;60.224;24.712;2023-05-29T04:19:59;4;4;
80643;PMS5003;70010;60.224;24.712;2023-05-29T04:22:24;4;4;
80643;PMS5003;70010;60.224;24.712;2023-05-29T04:24:49;3;1;
80643;PMS5003;70010;60.224;24.712;2023-05-29T04:27:15;4;4;
80643;PMS5003;70010;60.224;24.712;2023-05-29T04:29:40;4;4;
80643;PMS5003;70010;60.224;24.712;2023-05-29T04:32:05;3;3;
80643;PMS5003;70010;60.224;24.712;2023-05-29T04:34:30;2;1;
80643;PMS5003;70010;60.224;24.712;2023-05-29T04:36:56;5;5;
80643;PMS5003;70010;60.224;24.712;2023-05-29T04:39:21;1;1;
80643;PMS5003;70010;60.224;24.712;2023-05-29T04:41:46;3;3;
80643;PMS5003;70010;60.224;24.712;2023-05-29T04:44:12;2;2;
80643;PMS5003;70010;60.224;24.712;2023-05-29T04:46:37;2;2;
80643;PMS5003;70010;60.224;24.712;2023-05-29T04:49:02;3;3;
80643;PMS5003;70010;60.224;24.712;2023-05-29T04:51:28;5;4;
80643;PMS5003;70010;60.224;24.712;2023-05-29T04:53:53;4;3;
80643;PMS5003;70010;60.224;24.712;2023-05-29T04:56:18;3;3;
80643;PMS5003;70010;60.224;24.712;2023-05-29T04:58:43;2;2;
80643;PMS5003;70010;60.224;24.712;2023-05-29T05:01:09;2;2;
80643;PMS5003;70010;60.224;24.712;2023-05-29T05:03:34;2;2;
80643;PMS5003;70010;60.224;24.712;2023-05-29T05:05:59;4;4;
80643;PMS5003;70010;60.224;24.712;2023-05-29T05:08:25;2;2;
80643;PMS5003;70010;60.224;24.712;2023-05-29T05:10:50;1;1;
80643;PMS5003;70010;60.224;24.712;2023-05-29T05:13:15;1;1;
80643;PMS5003;70010;60.224;24.712;2023-05-29T05:15:40;3;2;
80643;PMS5003;70010;60.224;24.712;2023-05-29T05:18:06;3;3;
80643;PMS5003;70010;60.224;24.712;2023-05-29T05:20:31;3;3;
80643;PMS5003;70010;60.224;24.712;2023-05-29T05:22:56;2;2;
80643;PMS5003;70010;60.224;24.712;2023-05-29T05:25:22;2;2;
80643;PMS5003;70010;60.224;24.712;2023-05-29T05:27:47;2;2;
80643;PMS5003;70010;60.224;24.712;2023-05-29T05:30:13;2;2;
80643;PMS5003;70010;60.224;24.712;2023-05-29T05:32:38;2;2;
80643;PMS5003;70010;60.224;24.712;2023-05-29T05:35:03;0;0;
80643;PMS5003;70010;60.224;24.712;2023-05-29T05:37:28;2;2;
80643;PMS5003;70010;60.224;24.712;2023-05-29T05:39:54;2;2;
80643;PMS5003;70010;60.224;24.712;2023-05-29T05:42:19;3;3;
80643;PMS5003;70010;60.224;24.712;2023-05-29T05:44:44;3;3;
80643;PMS5003;70010;60.224;24.712;2023-05-29T05:47:09;2;2;
80643;PMS5003;70010;60.224;24.712;2023-05-29T05:49:35;2;2;
80643;PMS5003;70010;60.224;24.712;2023-05-29T05:52:00;1;1;
80643;PMS5003;70010;60.224;24.712;2023-05-29T05:54:25;2;2;
80643;PMS5003;70010;60.224;24.712;2023-05-29T05:56:51;1;1;
80643;PMS5003;70010;60.224;24.712;2023-05-29T05:59:16;2;2;
80643;PMS5003;70010;60.224;24.712;2023-05-29T06:01:41;0;0;
80643;PMS5003;70010;60.224;24.712;2023-05-29T06:04:06;0;0;
80643;PMS5003;70010;60.224;24.712;2023-05-29T06:06:32;2;2;
80643;PMS5003;70010;60.224;24.712;2023-05-29T06:08:57;1;1;
80643;PMS5003;70010;60.224;24.712;2023-05-29T06:11:22;2;1;
80643;PMS5003;70010;60.224;24.712;2023-05-29T06:13:48;1;1;
80643;PMS5003;70010;60.224;24.712;2023-05-29T06:16:13;1;1;
80643;PMS5003;70010;60.224;24.712;2023-05-29T06:18:38;3;1;
80643;PMS5003;70010;60.224;24.712;2023-05-29T06:21:03;0;0;
80643;PMS5003;70010;60.224;24.712;2023-05-29T06:23:29;0;0;
80643;PMS5003;70010;60.224;24.712;2023-05-29T06:25:54;0;0;
80643;PMS5003;70010;60.224;24.712;2023-05-29T06:28:19;1;1;
80643;PMS5003;70010;60.224;24.712;2023-05-29T06:30:45;0;0;
80643;PMS5003;70010;60.224;24.712;2023-05-29T06:33:10;1;1;
80643;PMS5003;70010;60.224;24.712;2023-05-29T06:35:35;1;1;
80643;PMS5003;70010;60.224;24.712;2023-05-29T06:38:00;2;1;
80643;PMS5003;70010;60.224;24.712;2023-05-29T06:40:26;1;1;
80643;PMS5003;70010;60.224;24.712;2023-05-29T06:42:51;1;1;
80643;PMS5003;70010;60.224;24.712;2023-05-29T06:45:16;0;0;
80643;PMS5003;70010;60.224;24.712;2023-05-29T06:47:42;2;1;
80643;PMS5003;70010;60.224;24.712;2023-05-29T06:50:07;3;2;
80643;PMS5003;70010;60.224;24.712;2023-05-29T06:52:32;1;0;
80643;PMS5003;70010;60.224;24.712;2023-05-29T06:54:58;0;0;
80643;PMS5003;70010;60.224;24.712;2023-05-29T06:57:23;1;1;
80643;PMS5003;70010;60.224;24.712;2023-05-29T06:59:48;1;1;
80643;PMS5003;70010;60.224;24.712;2023-05-29T07:02:13;2;2;
80643;PMS5003;70010;60.224;24.712;2023-05-29T07:04:39;0;0;
80643;PMS5003;70010;60.224;24.712;2023-05-29T07:07:04;0;0;
80643;PMS5003;70010;60.224;24.712;2023-05-29T07:09:29;1;1;
80643;PMS5003;70010;60.224;24.712;2023-05-29T07:11:55;3;2;
80643;PMS5003;70010;60.224;24.712;2023-05-29T07:14:20;1;1;
80643;PMS5003;70010;60.224;24.712;2023-05-29T07:16:45;0;0;
80643;PMS5003;70010;60.224;24.712;2023-05-29T07:19:10;0;0;
80643;PMS5003;70010;60.224;24.712;2023-05-29T07:21:36;0;0;
80643;PMS5003;70010;60.224;24.712;2023-05-29T07:24:01;1;1;
80643;PMS5003;70010;60.224;24.712;2023-05-29T07:26:26;1;1;
80643;PMS5003;70010;60.224;24.712;2023-05-29T07:28:52;1;1;
80643;PMS5003;70010;60.224;24.712;2023-05-29T07:31:17;1;1;
80643;PMS5003;70010;60.224;24.712;2023-05-29T07:33:42;0;0;
80643;PMS5003;70010;60.224;24.712;2023-05-29T07:36:08;0;0;
80643;PMS5003;70010;60.224;24.712;2023-05-29T07:38:33;1;1;
80643;PMS5003;70010;60.224;24.712;2023-05-29T07:40:58;0;0;
80643;PMS5003;70010;60.224;24.712;2023-05-29T07:43:23;0;0;
80643;PMS5003;70010;60.224;24.712;2023-05-29T07:45:49;0;0;
80643;PMS5003;70010;60.224;24.712;2023-05-29T07:48:14;0;0;
80643;PMS5003;70010;60.224;24.712;2023-05-29T07:50:39;0;0;
80643;PMS5003;70010;60.224;24.712;2023-05-29T07:53:05;0;0;
80643;PMS5003;70010;60.224;24.712;2023-05-29T07:55:30;0;0;
80643;PMS5003;70010;60.224;24.712;2023-05-29T07:57:55;0;0;
80643;PMS5003;70010;60.224;24.712;2023-05-29T08:00:21;1;1;
80643;PMS5003;70010;60.224;24.712;2023-05-29T08:02:46;0;0;
80643;PMS5003;70010;60.224;24.712;2023-05-29T08:05:11;1;1;
80643;PMS5003;70010;60.224;24.712;2023-05-29T08:07:36;0;0;
80643;PMS5003;70010;60.224;24.712;2023-05-29T08:10:02;0;0;
80643;PMS5003;70010;60.224;24.712;2023-05-29T08:12:27;0;0;
80643;PMS5003;70010;60.224;24.712;2023-05-29T08:14:52;3;1;
80643;PMS5003;70010;60.224;24.712;2023-05-29T08:17:17;1;1;
80643;PMS5003;70010;60.224;24.712;2023-05-29T08:19:43;1;1;
80643;PMS5003;70010;60.224;24.712;2023-05-29T08:22:12;1;1;
80643;PMS5003;70010;60.224;24.712;2023-05-29T08:24:33;0;0;
80643;PMS5003;70010;60.224;24.712;2023-05-29T08:26:59;0;0;
80643;PMS5003;70010;60.224;24.712;2023-05-29T08:29:24;0;0;
80643;PMS5003;70010;60.224;24.712;2023-05-29T08:31:49;1;0;
80643;PMS5003;70010;60.224;24.712;2023-05-29T08:34:15;0;0;
80643;PMS5003;70010;60.224;24.712;2023-05-29T08:36:40;0;0;
80643;PMS5003;70010;60.224;24.712;2023-05-29T08:39:05;1;0;
80643;PMS5003;70010;60.224;24.712;2023-05-29T08:41:33;2;0;
80643;PMS5003;70010;60.224;24.712;2023-05-29T08:43:56;1;0;
80643;PMS5003;70010;60.224;24.712;2023-05-29T08:46:21;0;0;
80643;PMS5003;70010;60.224;24.712;2023-05-29T08:48:47;0;0;
80643;PMS5003;70010;60.224;24.712;2023-05-29T08:51:11;0;0;
80643;PMS5003;70010;60.224;24.712;2023-05-29T08:53:37;1;0;
80643;PMS5003;70010;60.224;24.712;2023-05-29T08:56:02;0;0;
80643;PMS5003;70010;60.224;24.712;2023-05-29T08:58:27;0;0;
80643;PMS5003;70010;60.224;24.712;2023-05-29T09:00:53;0;0;
80643;PMS5003;70010;60.224;24.712;2023-05-29T09:03:18;3;1;
80643;PMS5003;70010;60.224;24.712;2023-05-29T09:05:44;0;0;
80643;PMS5003;70010;60.224;24.712;2023-05-29T09:08:09;2;2;
80643;PMS5003;70010;60.224;24.712;2023-05-29T09:10:34;1;1;
80643;PMS5003;70010;60.224;24.712;2023-05-29T09:12:59;0;0;
80643;PMS5003;70010;60.224;24.712;2023-05-29T09:15:24;0;0;
80643;PMS5003;70010;60.224;24.712;2023-05-29T09:17:50;1;0;
80643;PMS5003;70010;60.224;24.712;2023-05-29T09:20:15;1;1;
80643;PMS5003;70010;60.224;24.712;2023-05-29T09:22:41;0;0;
80643;PMS5003;70010;60.224;24.712;2023-05-29T09:25:06;1;0;
80643;PMS5003;70010;60.224;24.712;2023-05-29T09:27:31;1;0;
80643;PMS5003;70010;60.224;24.712;2023-05-29T09:32:21;0;0;
80643;PMS5003;70010;60.224;24.712;2023-05-29T09:34:46;2;1;
80643;PMS5003;70010;60.224;24.712;2023-05-29T09:37:12;2;0;
80643;PMS5003;70010;60.224;24.712;2023-05-29T09:39:45;0;0;
80643;PMS5003;70010;60.224;24.712;2023-05-29T09:42:03;1;1;
80643;PMS5003;70010;60.224;24.712;2023-05-29T09:44:28;1;1;
80643;PMS5003;70010;60.224;24.712;2023-05-29T09:46:57;0;0;
80643;PMS5003;70010;60.224;24.712;2023-05-29T09:49:18;0;0;
80643;PMS5003;70010;60.224;24.712;2023-05-29T09:51:44;0;0;
80643;PMS5003;70010;60.224;24.712;2023-05-29T09:56:34;0;0;
80643;PMS5003;70010;60.224;24.712;2023-05-29T09:58:59;0;0;
80643;PMS5003;70010;60.224;24.712;2023-05-29T10:01:24;0;0;
80643;PMS5003;70010;60.224;24.712;2023-05-29T10:03:50;0;0;
80643;PMS5003;70010;60.224;24.712;2023-05-29T10:06:16;1;1;
80643;PMS5003;70010;60.224;24.712;2023-05-29T10:08:42;1;1;
80643;PMS5003;70010;60.224;24.712;2023-05-29T10:11:05;0;0;
80643;PMS5003;70010;60.224;24.712;2023-05-29T10:13:32;1;1;
80643;PMS5003;70010;60.224;24.712;2023-05-29T10:15:56;0;0;
80643;PMS5003;70010;60.224;24.712;2023-05-29T10:18:23;0;0;
80643;PMS5003;70010;60.224;24.712;2023-05-29T10:20:47;2;2;
80643;PMS5003;70010;60.224;24.712;2023-05-29T10:23:12;1;0;
80643;PMS5003;70010;60.224;24.712;2023-05-29T10:25:37;0;0;
80643;PMS5003;70010;60.224;24.712;2023-05-29T10:28:02;1;0;
80643;PMS5003;70010;60.224;24.712;2023-05-29T10:30:30;0;0;
80643;PMS5003;70010;60.224;24.712;2023-05-29T10:33:04;0;0;
80643;PMS5003;70010;60.224;24.712;2023-05-29T10:35:20;0;0;
80643;PMS5003;70010;60.224;24.712;2023-05-29T10:37:44;0;0;
80643;PMS5003;70010;60.224;24.712;2023-05-29T10:40:09;1;1;
80643;PMS5003;70010;60.224;24.712;2023-05-29T10:44:59;0;0;
80643;PMS5003;70010;60.224;24.712;2023-05-29T10:47:24;0;0;
80643;PMS5003;70010;60.224;24.712;2023-05-29T10:49:50;1;0;
80643;PMS5003;70010;60.224;24.712;2023-05-29T10:52:15;0;0;
80643;PMS5003;70010;60.224;24.712;2023-05-29T10:54:41;1;0;
80643;PMS5003;70010;60.224;24.712;2023-05-29T10:57:05;3;2;
80643;PMS5003;70010;60.224;24.712;2023-05-29T10:59:35;0;0;
80643;PMS5003;70010;60.224;24.712;2023-05-29T11:01:56;0;0;
80643;PMS5003;70010;60.224;24.712;2023-05-29T11:06:46;0;0;
80643;PMS5003;70010;60.224;24.712;2023-05-29T11:11:37;1;0;
80643;PMS5003;70010;60.224;24.712;2023-05-29T11:14:03;2;1;
80643;PMS5003;70010;60.224;24.712;2023-05-29T11:18:53;0;0;
80643;PMS5003;70010;60.224;24.712;2023-05-29T11:23:43;1;1;
80643;PMS5003;70010;60.224;24.712;2023-05-29T11:26:08;0;0;
80643;PMS5003;70010;60.224;24.712;2023-05-29T11:28:34;0;0;
80643;PMS5003;70010;60.224;24.712;2023-05-29T11:30:59;2;0;
80643;PMS5003;70010;60.224;24.712;2023-05-29T11:33:25;0;0;
80643;PMS5003;70010;60.224;24.712;2023-05-29T11:35:50;0;0;
80643;PMS5003;70010;60.224;24.712;2023-05-29T11:38:15;3;1;
80643;PMS5003;70010;60.224;24.712;2023-05-29T11:40:40;0;0;
80643;PMS5003;70010;60.224;24.712;2023-05-29T11:43:05;2;0;
80643;PMS5003;70010;60.224;24.712;2023-05-29T11:45:32;0;0;
80643;PMS5003;70010;60.224;24.712;2023-05-29T11:47:57;1;1;
80643;PMS5003;70010;60.224;24.712;2023-05-29T11:50:21;0;0;
80643;PMS5003;70010;60.224;24.712;2023-05-29T11:52:46;0;0;
80643;PMS5003;70010;60.224;24.712;2023-05-29T11:55:12;0;0;
80643;PMS5003;70010;60.224;24.712;2023-05-29T11:57:37;1;1;
80643;PMS5003;70010;60.224;24.712;2023-05-29T12:00:02;3;1;
80643;PMS5003;70010;60.224;24.712;2023-05-29T12:02:29;0;0;
80643;PMS5003;70010;60.224;24.712;2023-05-29T12:07:18;1;1;
80643;PMS5003;70010;60.224;24.712;2023-05-29T12:09:43;0;0;
80643;PMS5003;70010;60.224;24.712;2023-05-29T12:12:08;0;0;
80643;PMS5003;70010;60.224;24.712;2023-05-29T12:14:34;2;0;
80643;PMS5003;70010;60.224;24.712;2023-05-29T12:16:59;0;0;
80643;PMS5003;70010;60.224;24.712;2023-05-29T12:19:24;0;0;
80643;PMS5003;70010;60.224;24.712;2023-05-29T12:21:49;0;0;
80643;PMS5003;70010;60.224;24.712;2023-05-29T12:24:15;0;0;
80643;PMS5003;70010;60.224;24.712;2023-05-29T12:26:41;1;0;
80643;PMS5003;70010;60.224;24.712;2023-05-29T12:29:05;2;1;
80643;PMS5003;70010;60.224;24.712;2023-05-29T12:31:31;0;0;
80643;PMS5003;70010;60.224;24.712;2023-05-29T12:33:59;1;1;
80643;PMS5003;70010;60.224;24.712;2023-05-29T12:36:21;0;0;
80643;PMS5003;70010;60.224;24.712;2023-05-29T12:38:46;0;0;
80643;PMS5003;70010;60.224;24.712;2023-05-29T12:43:37;0;0;
80643;PMS5003;70010;60.224;24.712;2023-05-29T12:46:02;1;0;
80643;PMS5003;70010;60.224;24.712;2023-05-29T12:48:27;1;0;
80643;PMS5003;70010;60.224;24.712;2023-05-29T12:50:52;0;0;
80643;PMS5003;70010;60.224;24.712;2023-05-29T12:53:18;1;1;
80643;PMS5003;70010;60.224;24.712;2023-05-29T12:55:43;0;0;
80643;PMS5003;70010;60.224;24.712;2023-05-29T12:58:08;0;0;
80643;PMS5003;70010;60.224;24.712;2023-05-29T13:00:34;0;0;
80643;PMS5003;70010;60.224;24.712;2023-05-29T13:02:59;1;0;
80643;PMS5003;70010;60.224;24.712;2023-05-29T13:05:24;0;0;
80643;PMS5003;70010;60.224;24.712;2023-05-29T13:07:49;0;0;
80643;PMS5003;70010;60.224;24.712;2023-05-29T13:10:14;1;1;
80643;PMS5003;70010;60.224;24.712;2023-05-29T13:12:40;1;0;
80643;PMS5003;70010;60.224;24.712;2023-05-29T13:15:05;0;0;
80643;PMS5003;70010;60.224;24.712;2023-05-29T13:17:30;0;0;
80643;PMS5003;70010;60.224;24.712;2023-05-29T13:19:55;1;1;
80643;PMS5003;70010;60.224;24.712;2023-05-29T13:22:21;0;0;
80643;PMS5003;70010;60.224;24.712;2023-05-29T13:24:46;0;0;
80643;PMS5003;70010;60.224;24.712;2023-05-29T13:27:11;0;0;
80643;PMS5003;70010;60.224;24.712;2023-05-29T13:29:36;2;0;
80643;PMS5003;70010;60.224;24.712;2023-05-29T13:32:02;0;0;
80643;PMS5003;70010;60.224;24.712;2023-05-29T13:34:27;0;0;
80643;PMS5003;70010;60.224;24.712;2023-05-29T13:36:52;1;0;
80643;PMS5003;70010;60.224;24.712;2023-05-29T13:39:17;1;1;
80643;PMS5003;70010;60.224;24.712;2023-05-29T13:41:42;1;1;
80643;PMS5003;70010;60.224;24.712;2023-05-29T13:44:08;0;0;
80643;PMS5003;70010;60.224;24.712;2023-05-29T13:46:33;1;1;
80643;PMS5003;70010;60.224;24.712;2023-05-29T13:48:58;0;0;
80643;PMS5003;70010;60.224;24.712;2023-05-29T13:51:24;0;0;
80643;PMS5003;70010;60.224;24.712;2023-05-29T13:53:49;0;0;
80643;PMS5003;70010;60.224;24.712;2023-05-29T13:56:14;0;0;
80643;PMS5003;70010;60.224;24.712;2023-05-29T13:58:39;0;0;
80643;PMS5003;70010;60.224;24.712;2023-05-29T14:01:04;0;0;
80643;PMS5003;70010;60.224;24.712;2023-05-29T14:03:30;1;0;
80643;PMS5003;70010;60.224;24.712;2023-05-29T14:05:55;0;0;
80643;PMS5003;70010;60.224;24.712;2023-05-29T14:08:20;0;0;
80643;PMS5003;70010;60.224;24.712;2023-05-29T14:10:46;0;0;
80643;PMS5003;70010;60.224;24.712;2023-05-29T14:13:11;0;0;
80643;PMS5003;70010;60.224;24.712;2023-05-29T14:15:36;0;0;
80643;PMS5003;70010;60.224;24.712;2023-05-29T14:18:01;0;0;
80643;PMS5003;70010;60.224;24.712;2023-05-29T14:20:26;1;1;
80643;PMS5003;70010;60.224;24.712;2023-05-29T14:22:52;2;1;
80643;PMS5003;70010;60.224;24.712;2023-05-29T14:25:17;0;0;
80643;PMS5003;70010;60.224;24.712;2023-05-29T14:27:42;0;0;
80643;PMS5003;70010;60.224;24.712;2023-05-29T14:30:08;1;0;
80643;PMS5003;70010;60.224;24.712;2023-05-29T14:32:34;0;0;
80643;PMS5003;70010;60.224;24.712;2023-05-29T14:34:58;0;0;
80643;PMS5003;70010;60.224;24.712;2023-05-29T14:37:23;0;0;
80643;PMS5003;70010;60.224;24.712;2023-05-29T14:39:48;0;0;
80643;PMS5003;70010;60.224;24.712;2023-05-29T14:42:14;0;0;
80643;PMS5003;70010;60.224;24.712;2023-05-29T14:44:39;0;0;
80643;PMS5003;70010;60.224;24.712;2023-05-29T14:47:04;0;0;
80643;PMS5003;70010;60.224;24.712;2023-05-29T14:49:29;0;0;
80643;PMS5003;70010;60.224;24.712;2023-05-29T14:51:55;0;0;
80643;PMS5003;70010;60.224;24.712;2023-05-29T14:54:20;0;0;
80643;PMS5003;70010;60.224;24.712;2023-05-29T14:56:45;2;1;
80643;PMS5003;70010;60.224;24.712;2023-05-29T14:59:10;1;1;
80643;PMS5003;70010;60.224;24.712;2023-05-29T15:01:36;0;0;
80643;PMS5003;70010;60.224;24.712;2023-05-29T15:04:01;0;0;
80643;PMS5003;70010;60.224;24.712;2023-05-29T15:06:26;2;1;
80643;PMS5003;70010;60.224;24.712;2023-05-29T15:08:51;0;0;
80643;PMS5003;70010;60.224;24.712;2023-05-29T15:11:17;0;0;
80643;PMS5003;70010;60.224;24.712;2023-05-29T15:13:42;0;0;
80643;PMS5003;70010;60.224;24.712;2023-05-29T15:16:07;0;0;
80643;PMS5003;70010;60.224;24.712;2023-05-29T15:18:32;0;0;
80643;PMS5003;70010;60.224;24.712;2023-05-29T15:20:58;0;0;
80643;PMS5003;70010;60.224;24.712;2023-05-29T15:23:23;0;0;
80643;PMS5003;70010;60.224;24.712;2023-05-29T15:25:48;0;0;
80643;PMS5003;70010;60.224;24.712;2023-05-29T15:28:13;0;0;
80643;PMS5003;70010;60.224;24.712;2023-05-29T15:30:39;0;0;
80643;PMS5003;70010;60.224;24.712;2023-05-29T15:33:04;0;0;
80643;PMS5003;70010;60.224;24.712;2023-05-29T15:35:29;0;0;
80643;PMS5003;70010;60.224;24.712;2023-05-29T15:37:54;0;0;
80643;PMS5003;70010;60.224;24.712;2023-05-29T15:40:20;0;0;
80643;PMS5003;70010;60.224;24.712;2023-05-29T15:42:45;0;0;
80643;PMS5003;70010;60.224;24.712;2023-05-29T15:45:10;1;0;
80643;PMS5003;70010;60.224;24.712;2023-05-29T15:47:35;0;0;
80643;PMS5003;70010;60.224;24.712;2023-05-29T15:50:01;1;1;
80643;PMS5003;70010;60.224;24.712;2023-05-29T15:52:26;0;0;
80643;PMS5003;70010;60.224;24.712;2023-05-29T15:54:51;2;0;
80643;PMS5003;70010;60.224;24.712;2023-05-29T15:57:16;1;1;
80643;PMS5003;70010;60.224;24.712;2023-05-29T15:59:42;1;0;
80643;PMS5003;70010;60.224;24.712;2023-05-29T16:02:07;0;0;
80643;PMS5003;70010;60.224;24.712;2023-05-29T16:04:32;3;0;
80643;PMS5003;70010;60.224;24.712;2023-05-29T16:06:57;1;0;
80643;PMS5003;70010;60.224;24.712;2023-05-29T16:09:23;0;0;
80643;PMS5003;70010;60.224;24.712;2023-05-29T16:11:48;1;0;
80643;PMS5003;70010;60.224;24.712;2023-05-29T16:14:13;1;1;
80643;PMS5003;70010;60.224;24.712;2023-05-29T16:16:39;1;0;
80643;PMS5003;70010;60.224;24.712;2023-05-29T16:19:04;0;0;
80643;PMS5003;70010;60.224;24.712;2023-05-29T16:21:29;0;0;
80643;PMS5003;70010;60.224;24.712;2023-05-29T16:23:54;0;0;
80643;PMS5003;70010;60.224;24.712;2023-05-29T16:26:20;0;0;
80643;PMS5003;70010;60.224;24.712;2023-05-29T16:28:45;0;0;
80643;PMS5003;70010;60.224;24.712;2023-05-29T16:31:10;0;0;
80643;PMS5003;70010;60.224;24.712;2023-05-29T16:33:36;0;0;
80643;PMS5003;70010;60.224;24.712;2023-05-29T16:36:01;0;0;
80643;PMS5003;70010;60.224;24.712;2023-05-29T16:38:26;0;0;
80643;PMS5003;70010;60.224;24.712;2023-05-29T16:40:51;0;0;
80643;PMS5003;70010;60.224;24.712;2023-05-29T16:43:17;2;0;
80643;PMS5003;70010;60.224;24.712;2023-05-29T16:45:42;0;0;